Rickmers Dalian — V7FS3 — position and weather

sailwx.info

Track history (hours):
 
Tides and Currents Weather Stations Pressure Air Temp Water Temp Dewpoint Dewpoint Depression Visibility Wind Speed Wind Dir Waves Ship Positions

Rickmers Dalian

Last reported at 2015-Mar-28 08:14 UTC. Time now 2015-Mar-29 16:07 UTC.
Position N 29°21' W 094°45'.

Length 193 m; beam 27.8 m; draft 11.2 m.

Type: Ship. MMSI: 538090156.

Date/timePositionNaut miles runAvg speedWind from/ knotsBaromVisibWave heightAir tempDewpointWater temp
2015-Mar-28 08:14N 29°21' W 094°45'912.9
2015-Mar-28 07:33N 29°28' W 094°51'1212.4
2015-Mar-28 06:33N 29°38' W 094°58'9 9.1
2015-Mar-28 05:33N 29°46' W 095°04'6 6.4
2015-Mar-28 04:33N 29°45' W 095°12'4 0.5
2015-Mar-27 21:31N 29°44' W 095°16'0 0.0
2015-Mar-27 20:28N 29°44' W 095°16'0 0.0
2015-Mar-27 19:31N 29°44' W 095°16'0 0.0
2015-Mar-27 18:31N 29°44' W 095°16'0 0.0
2015-Mar-27 17:31N 29°44' W 095°16'0 0.0
2015-Mar-27 16:31N 29°44' W 095°16'0 0.0
2015-Mar-27 15:31N 29°44' W 095°16'0 0.0
2015-Mar-27 14:31N 29°44' W 095°16'0 0.0
2015-Mar-27 13:31N 29°44' W 095°16'0 0.0
2015-Mar-25 19:04N 29°44' W 095°16'0 0.0
2015-Mar-25 18:23N 29°44' W 095°16'0 0.0
2015-Mar-25 17:32N 29°44' W 095°16'0 0.0
2015-Mar-25 16:31N 29°44' W 095°16'0 0.0
2015-Mar-25 15:31N 29°44' W 095°16'0 0.0
2015-Mar-25 14:31N 29°44' W 095°16'0 0.0
2015-Mar-25 13:31N 29°44' W 095°16'0 0.0
2015-Mar-24 18:31N 29°44' W 095°16'0 0.0
2015-Mar-24 17:31N 29°44' W 095°16'0 0.0
2015-Mar-24 16:31N 29°44' W 095°16'0 0.0
2015-Mar-24 15:28N 29°44' W 095°16'0 0.0
2015-Mar-24 14:31N 29°44' W 095°16'0 0.0
2015-Mar-24 13:31N 29°44' W 095°16'0 0.0
2015-Mar-24 12:31N 29°44' W 095°16'0 0.0
2015-Mar-24 11:31N 29°44' W 095°16'0 0.0
2015-Mar-24 10:31N 29°44' W 095°16'0 0.0
2015-Mar-24 09:31N 29°44' W 095°16'0 0.0
2015-Mar-24 08:31N 29°44' W 095°16'0 0.0
2015-Mar-24 07:31N 29°44' W 095°16'0 0.0
2015-Mar-24 06:31N 29°44' W 095°16'0 0.0
2015-Mar-24 05:32N 29°44' W 095°16'0 0.0
2015-Mar-24 04:28N 29°44' W 095°16'0 0.0
2015-Mar-24 03:31N 29°44' W 095°16'0 0.0
2015-Mar-24 02:31N 29°44' W 095°16'0 0.0
2015-Mar-24 01:33N 29°44' W 095°16'1 0.8
2015-Mar-24 00:33N 29°43' W 095°15'5 4.9
2015-Mar-23 23:33N 29°44' W 095°10'5 5.4
2015-Mar-23 22:33N 29°44' W 095°03'8 7.6
2015-Mar-23 21:33N 29°38' W 094°58'1212.0
2015-Mar-23 20:33N 29°28' W 094°51'  
Track history (hours):
 
Tides and Currents Weather Stations Pressure Air Temp Water Temp Dewpoint Dewpoint Depression Visibility Wind Speed Wind Dir Waves Ship Positions

Rickmers Dalian

Last reported at 2015-Mar-28 08:14 UTC. Time now 2015-Mar-29 16:07 UTC.
Position N 29°21' W 094°45'.

Length 193 m; beam 27.8 m; draft 11.2 m.

Type: Ship. MMSI: 538090156.

Date/timePositionNaut miles runAvg speedWind from/ knotsBaromVisibWave heightAir tempDewpointWater temp
2015-Mar-28 08:14N 29°21' W 094°45'912.9
2015-Mar-28 07:33N 29°28' W 094°51'1212.4
2015-Mar-28 06:33N 29°38' W 094°58'9 9.1
2015-Mar-28 05:33N 29°46' W 095°04'6 6.4
2015-Mar-28 04:33N 29°45' W 095°12'4 0.5
2015-Mar-27 21:31N 29°44' W 095°16'0 0.0
2015-Mar-27 20:28N 29°44' W 095°16'0 0.0
2015-Mar-27 19:31N 29°44' W 095°16'0 0.0
2015-Mar-27 18:31N 29°44' W 095°16'0 0.0
2015-Mar-27 17:31N 29°44' W 095°16'0 0.0
2015-Mar-27 16:31N 29°44' W 095°16'0 0.0
2015-Mar-27 15:31N 29°44' W 095°16'0 0.0
2015-Mar-27 14:31N 29°44' W 095°16'0 0.0
2015-Mar-27 13:31N 29°44' W 095°16'0 0.0
2015-Mar-25 19:04N 29°44' W 095°16'0 0.0
2015-Mar-25 18:23N 29°44' W 095°16'0 0.0
2015-Mar-25 17:32N 29°44' W 095°16'0 0.0
2015-Mar-25 16:31N 29°44' W 095°16'0 0.0
2015-Mar-25 15:31N 29°44' W 095°16'0 0.0
2015-Mar-25 14:31N 29°44' W 095°16'0 0.0
2015-Mar-25 13:31N 29°44' W 095°16'0 0.0
2015-Mar-24 18:31N 29°44' W 095°16'0 0.0
2015-Mar-24 17:31N 29°44' W 095°16'0 0.0
2015-Mar-24 16:31N 29°44' W 095°16'0 0.0
2015-Mar-24 15:28N 29°44' W 095°16'0 0.0
2015-Mar-24 14:31N 29°44' W 095°16'0 0.0
2015-Mar-24 13:31N 29°44' W 095°16'0 0.0
2015-Mar-24 12:31N 29°44' W 095°16'0 0.0
2015-Mar-24 11:31N 29°44' W 095°16'0 0.0
2015-Mar-24 10:31N 29°44' W 095°16'0 0.0
2015-Mar-24 09:31N 29°44' W 095°16'0 0.0
2015-Mar-24 08:31N 29°44' W 095°16'0 0.0
2015-Mar-24 07:31N 29°44' W 095°16'0 0.0
2015-Mar-24 06:31N 29°44' W 095°16'0 0.0
2015-Mar-24 05:32N 29°44' W 095°16'0 0.0
2015-Mar-24 04:28N 29°44' W 095°16'0 0.0
2015-Mar-24 03:31N 29°44' W 095°16'0 0.0
2015-Mar-24 02:31N 29°44' W 095°16'0 0.0
2015-Mar-24 01:33N 29°44' W 095°16'1 0.8
2015-Mar-24 00:33N 29°43' W 095°15'5 4.9
2015-Mar-23 23:33N 29°44' W 095°10'5 5.4
2015-Mar-23 22:33N 29°44' W 095°03'8 7.6
2015-Mar-23 21:33N 29°38' W 094°58'1212.0
2015-Mar-23 20:33N 29°28' W 094°51'  

Dump ship's entire track history